Time,TemperatureF,DewpointF,PressureIn,WindDirection,WindDirectionDegrees,WindSpeedMPH,WindSpeedGustMPH,Humidity,HourlyPrecipIn,Conditions,Clouds,dailyrainin,SoftwareType,DateUTC
2013-01-22 00:00:00,-6.0,-11.9,30.41,North,5,0.0,2.0,75,0.00,,,0.00,meteohub,2013-01-22 06:00:00,
2013-01-22 00:05:00,-6.0,-11.9,30.41,North,5,0.0,1.0,75,0.00,,,0.00,meteohub,2013-01-22 06:05:00,
2013-01-22 00:10:00,-6.0,-11.9,30.41,North,5,0.0,0.0,75,0.00,,,0.00,meteohub,2013-01-22 06:10:00,
2013-01-22 00:15:00,-5.8,-11.7,30.41,NNE,12,1.0,2.0,75,0.00,,,0.00,meteohub,2013-01-22 06:15:00,
2013-01-22 00:20:00,-5.6,-11.2,30.41,NE,37,0.0,4.0,76,0.00,,,0.00,meteohub,2013-01-22 06:20:00,
2013-01-22 00:26:00,-5.4,-11.0,30.41,NE,37,0.0,4.0,76,0.00,,,0.00,meteohub,2013-01-22 06:26:00,
2013-01-22 00:31:00,-5.3,-11.2,30.41,NE,34,0.0,5.0,75,0.00,,,0.00,meteohub,2013-01-22 06:31:00,
2013-01-22 00:36:00,-5.3,-11.2,30.41,NE,44,1.0,5.0,75,0.00,,,0.00,meteohub,2013-01-22 06:36:00,
2013-01-22 00:41:00,-5.3,-11.2,30.42,NE,45,2.0,5.0,75,0.00,,,0.00,meteohub,2013-01-22 06:41:00,
2013-01-22 00:46:00,-5.1,-11.2,30.42,NE,35,0.0,7.0,74,0.00,,,0.00,meteohub,2013-01-22 06:46:00,
2013-01-22 00:51:00,-5.3,-11.4,30.42,NNE,22,0.0,7.0,74,0.00,,,0.00,meteohub,2013-01-22 06:51:00,
2013-01-22 00:56:00,-5.3,-11.4,30.43,NNE,19,0.0,7.0,74,0.00,,,0.00,meteohub,2013-01-22 06:56:00,
2013-01-22 01:01:00,-5.4,-11.9,30.43,NNE,19,0.0,3.0,73,0.00,,,0.00,meteohub,2013-01-22 07:01:00,
2013-01-22 01:06:00,-5.4,-11.9,30.43,NE,35,2.0,3.0,73,0.00,,,0.00,meteohub,2013-01-22 07:06:00,
2013-01-22 01:11:00,-5.6,-12.1,30.43,NNE,16,1.0,2.0,73,0.00,,,0.00,meteohub,2013-01-22 07:11:00,
2013-01-22 01:17:00,-5.6,-12.1,30.43,NNE,25,0.0,3.0,73,0.00,,,0.00,meteohub,2013-01-22 07:17:00,
2013-01-22 01:22:00,-5.6,-12.1,30.43,NNE,28,0.0,3.0,73,0.00,,,0.00,meteohub,2013-01-22 07:22:00,
2013-01-22 01:27:00,-5.6,-12.3,30.43,NNE,28,0.0,3.0,72,0.00,,,0.00,meteohub,2013-01-22 07:27:00,
2013-01-22 01:32:00,-5.8,-12.5,30.43,NE,43,1.0,4.0,72,0.00,,,0.00,meteohub,2013-01-22 07:32:00,
2013-01-22 01:37:00,-5.8,-12.5,30.43,NE,45,0.0,6.0,72,0.00,,,0.00,meteohub,2013-01-22 07:37:00,
2013-01-22 01:42:00,-6.0,-12.6,30.44,NE,45,0.0,6.0,72,0.00,,,0.00,meteohub,2013-01-22 07:42:00,
2013-01-22 01:47:00,-6.0,-12.6,30.44,NE,41,0.0,6.0,72,0.00,,,0.00,meteohub,2013-01-22 07:47:00,
2013-01-22 01:52:00,-6.0,-12.6,30.44,NE,42,1.0,4.0,72,0.00,,,0.00,meteohub,2013-01-22 07:52:00,
2013-01-22 01:57:00,-6.0,-12.6,30.44,NE,42,0.0,4.0,72,0.00,,,0.00,meteohub,2013-01-22 07:57:00,
2013-01-22 02:02:00,-6.2,-12.8,30.45,NE,41,0.0,4.0,72,0.00,,,0.00,meteohub,2013-01-22 08:02:00,
2013-01-22 02:07:00,-6.3,-13.0,30.45,NE,41,0.0,2.0,72,0.00,,,0.00,meteohub,2013-01-22 08:07:00,
2013-01-22 02:12:00,-6.3,-13.0,30.45,NE,42,0.0,2.0,72,0.00,,,0.00,meteohub,2013-01-22 08:12:00,
2013-01-22 02:17:00,-6.3,-13.0,30.45,NE,42,0.0,2.0,72,0.00,,,0.00,meteohub,2013-01-22 08:17:00,
2013-01-22 02:22:00,-6.3,-13.0,30.45,NE,41,0.0,2.0,72,0.00,,,0.00,meteohub,2013-01-22 08:22:00,
2013-01-22 02:27:00,-6.5,-13.2,30.45,NE,41,0.0,2.0,72,0.00,,,0.00,meteohub,2013-01-22 08:27:00,
2013-01-22 02:32:00,-6.5,-13.2,30.45,NE,41,0.0,4.0,72,0.00,,,0.00,meteohub,2013-01-22 08:32:00,
2013-01-22 02:37:00,-6.5,-13.2,30.45,NE,41,0.0,4.0,72,0.00,,,0.00,meteohub,2013-01-22 08:37:00,
2013-01-22 02:42:00,-6.5,-13.2,30.45,NE,41,0.0,4.0,72,0.00,,,0.00,meteohub,2013-01-22 08:42:00,
2013-01-22 02:47:00,-6.7,-13.4,30.45,NE,41,0.0,2.0,72,0.00,,,0.00,meteohub,2013-01-22 08:47:00,
2013-01-22 02:52:00,-6.7,-13.4,30.46,NE,42,0.0,2.0,72,0.00,,,0.00,meteohub,2013-01-22 08:52:00,
2013-01-22 02:57:00,-6.9,-13.5,30.45,NE,41,0.0,2.0,72,0.00,,,0.00,meteohub,2013-01-22 08:57:00,
2013-01-22 03:02:00,-6.9,-13.5,30.45,NE,39,1.0,2.0,72,0.00,,,0.00,meteohub,2013-01-22 09:02:00,
2013-01-22 03:07:00,-6.9,-13.5,30.45,NE,40,0.0,4.0,72,0.00,,,0.00,meteohub,2013-01-22 09:07:00,
2013-01-22 03:13:00,-6.9,-13.5,30.45,NE,40,0.0,4.0,72,0.00,,,0.00,meteohub,2013-01-22 09:13:00,
2013-01-22 03:18:00,-7.1,-13.7,30.45,NE,40,0.0,4.0,72,0.00,,,0.00,meteohub,2013-01-22 09:18:00,
2013-01-22 03:23:00,-7.1,-13.7,30.45,NE,40,0.0,2.0,72,0.00,,,0.00,meteohub,2013-01-22 09:23:00,
2013-01-22 03:28:00,-7.1,-13.7,30.45,NE,40,0.0,1.0,72,0.00,,,0.00,meteohub,2013-01-22 09:28:00,
2013-01-22 03:33:00,-7.1,-13.7,30.45,NE,40,0.0,1.0,72,0.00,,,0.00,meteohub,2013-01-22 09:33:00,
2013-01-22 03:38:00,-7.2,-13.9,30.45,NE,40,1.0,2.0,72,0.00,,,0.00,meteohub,2013-01-22 09:38:00,
2013-01-22 03:43:00,-7.2,-13.9,30.45,NE,40,1.0,2.0,72,0.00,,,0.00,meteohub,2013-01-22 09:43:00,
2013-01-22 03:48:00,-7.2,-13.9,30.45,NE,38,0.0,3.0,72,0.00,,,0.00,meteohub,2013-01-22 09:48:00,
2013-01-22 03:53:00,-7.2,-13.9,30.45,NE,36,0.0,3.0,72,0.00,,,0.00,meteohub,2013-01-22 09:53:00,
2013-01-22 03:58:00,-7.2,-13.9,30.45,NE,36,0.0,3.0,72,0.00,,,0.00,meteohub,2013-01-22 09:58:00,
2013-01-22 04:04:00,-7.4,-14.1,30.45,NE,36,0.0,2.0,72,0.00,,,0.00,meteohub,2013-01-22 10:04:00,
2013-01-22 04:09:00,-7.4,-14.1,30.45,NE,36,0.0,2.0,72,0.00,,,0.00,meteohub,2013-01-22 10:09:00,
2013-01-22 04:14:00,-7.4,-14.1,30.45,NE,36,0.0,1.0,72,0.00,,,0.00,meteohub,2013-01-22 10:14:00,
2013-01-22 04:19:00,-7.4,-14.1,30.46,NE,36,0.0,1.0,72,0.00,,,0.00,meteohub,2013-01-22 10:19:00,
2013-01-22 04:24:00,-7.6,-14.3,30.45,NE,36,0.0,1.0,72,0.00,,,0.00,meteohub,2013-01-22 10:24:00,
2013-01-22 04:29:00,-7.6,-14.3,30.46,NE,36,0.0,1.0,72,0.00,,,0.00,meteohub,2013-01-22 10:29:00,
2013-01-22 04:34:00,-7.8,-14.4,30.46,NE,36,0.0,0.0,72,0.00,,,0.00,meteohub,2013-01-22 10:34:00,
2013-01-22 04:39:00,-7.8,-14.4,30.46,NE,36,0.0,0.0,72,0.00,,,0.00,meteohub,2013-01-22 10:39:00,
2013-01-22 04:44:00,-7.8,-14.4,30.45,NE,36,0.0,0.0,72,0.00,,,0.00,meteohub,2013-01-22 10:44:00,
2013-01-22 04:50:00,-8.0,-14.6,30.46,NE,36,1.0,1.0,72,0.00,,,0.00,meteohub,2013-01-22 10:50:00,
2013-01-22 04:55:00,-8.0,-14.6,30.46,NE,36,0.0,2.0,72,0.00,,,0.00,meteohub,2013-01-22 10:55:00,
2013-01-22 05:00:00,-8.0,-14.6,30.46,NE,36,0.0,2.0,72,0.00,,,0.00,meteohub,2013-01-22 11:00:00,
2013-01-22 05:05:00,-8.0,-14.6,30.46,NE,36,0.0,0.0,72,0.00,,,0.00,meteohub,2013-01-22 11:05:00,
2013-01-22 05:10:00,-8.1,-14.8,30.46,NE,36,0.0,0.0,72,0.00,,,0.00,meteohub,2013-01-22 11:10:00,
2013-01-22 05:15:00,-8.1,-14.8,30.46,NE,36,0.0,0.0,72,0.00,,,0.00,meteohub,2013-01-22 11:15:00,
2013-01-22 05:20:00,-8.1,-14.8,30.46,NE,36,0.0,2.0,72,0.00,,,0.00,meteohub,2013-01-22 11:20:00,
2013-01-22 05:25:00,-8.1,-14.8,30.46,NE,36,0.0,2.0,72,0.00,,,0.00,meteohub,2013-01-22 11:25:00,
2013-01-22 05:31:00,-8.3,-15.0,30.46,NE,36,0.0,2.0,72,0.00,,,0.00,meteohub,2013-01-22 11:31:00,
2013-01-22 05:36:00,-8.3,-15.0,30.46,NNE,30,0.0,2.0,72,0.00,,,0.00,meteohub,2013-01-22 11:36:00,
2013-01-22 05:42:00,-8.3,-15.0,30.46,NNE,31,0.0,2.0,72,0.00,,,0.00,meteohub,2013-01-22 11:42:00,
2013-01-22 05:47:00,-8.5,-15.2,30.46,NNE,30,0.0,2.0,72,0.00,,,0.00,meteohub,2013-01-22 11:47:00,
2013-01-22 05:52:00,-8.5,-15.2,30.46,NNE,31,0.0,2.0,72,0.00,,,0.00,meteohub,2013-01-22 11:52:00,
2013-01-22 05:57:00,-8.7,-15.3,30.46,NNE,31,0.0,1.0,72,0.00,,,0.00,meteohub,2013-01-22 11:57:00,
2013-01-22 06:02:00,-8.7,-15.3,30.46,NNE,31,0.0,2.0,72,0.00,,,0.00,meteohub,2013-01-22 12:02:00,
2013-01-22 06:07:00,-8.7,-15.3,30.47,NNE,31,0.0,2.0,72,0.00,,,0.00,meteohub,2013-01-22 12:07:00,
2013-01-22 06:12:00,-8.9,-15.5,30.47,NNE,31,0.0,2.0,72,0.00,,,0.00,meteohub,2013-01-22 12:12:00,
2013-01-22 06:17:00,-8.9,-15.5,30.47,NNE,31,0.0,0.0,72,0.00,,,0.00,meteohub,2013-01-22 12:17:00,
2013-01-22 06:23:00,-8.9,-15.5,30.47,NNE,30,0.0,0.0,72,0.00,,,0.00,meteohub,2013-01-22 12:23:00,
2013-01-22 06:28:00,-8.9,-15.5,30.47,NNE,31,0.0,0.0,72,0.00,,,0.00,meteohub,2013-01-22 12:28:00,
2013-01-22 06:33:00,-9.0,-15.5,30.47,NNE,31,0.0,0.0,72,0.00,,,0.00,meteohub,2013-01-22 12:33:00,
2013-01-22 06:38:00,-9.0,-15.5,30.48,NNE,31,0.0,2.0,72,0.00,,,0.00,meteohub,2013-01-22 12:38:00,
2013-01-22 06:43:00,-9.0,-15.5,30.48,NNE,31,0.0,2.0,72,0.00,,,0.00,meteohub,2013-01-22 12:43:00,
2013-01-22 06:49:00,-9.0,-15.5,30.48,NNE,31,0.0,2.0,72,0.00,,,0.00,meteohub,2013-01-22 12:49:00,
2013-01-22 06:54:00,-9.0,-15.5,30.48,NNE,30,0.0,1.0,72,0.00,,,0.00,meteohub,2013-01-22 12:54:00,
2013-01-22 06:59:00,-9.0,-15.5,30.48,NNE,31,0.0,1.0,72,0.00,,,0.00,meteohub,2013-01-22 12:59:00,
2013-01-22 07:04:00,-9.0,-15.5,30.48,NNE,30,0.0,1.0,72,0.00,,,0.00,meteohub,2013-01-22 13:04:00,
2013-01-22 07:09:00,-9.0,-15.5,30.48,NNE,31,0.0,2.0,72,0.00,,,0.00,meteohub,2013-01-22 13:09:00,
2013-01-22 07:15:00,-9.2,-15.7,30.48,NNE,31,0.0,2.0,72,0.00,,,0.00,meteohub,2013-01-22 13:15:00,
2013-01-22 07:20:00,-9.2,-15.7,30.48,NNE,30,0.0,2.0,72,0.00,,,0.00,meteohub,2013-01-22 13:20:00,
2013-01-22 07:25:00,-9.2,-15.7,30.48,NNE,30,0.0,1.0,72,0.00,,,0.00,meteohub,2013-01-22 13:25:00,
2013-01-22 07:30:00,-9.4,-15.9,30.48,NNE,31,0.0,1.0,72,0.00,,,0.00,meteohub,2013-01-22 13:30:00,
2013-01-22 07:36:00,-9.4,-15.9,30.48,NNE,30,0.0,1.0,72,0.00,,,0.00,meteohub,2013-01-22 13:36:00,
2013-01-22 07:41:00,-9.4,-15.9,30.48,NNE,31,0.0,0.0,72,0.00,,,0.00,meteohub,2013-01-22 13:41:00,
2013-01-22 07:46:00,-9.6,-16.1,30.48,NNE,31,0.0,0.0,72,0.00,,,0.00,meteohub,2013-01-22 13:46:00,
2013-01-22 07:52:00,-9.6,-16.1,30.48,NNE,31,0.0,0.0,72,0.00,,,0.00,meteohub,2013-01-22 13:52:00,
2013-01-22 07:57:00,-9.6,-16.1,30.48,NNE,31,0.0,0.0,72,0.00,,,0.00,meteohub,2013-01-22 13:57:00,
2013-01-22 08:02:00,-9.6,-16.1,30.48,NNE,30,0.0,0.0,72,0.00,,,0.00,meteohub,2013-01-22 14:02:00,
2013-01-22 08:07:00,-9.6,-16.1,30.48,NNE,31,0.0,0.0,72,0.00,,,0.00,meteohub,2013-01-22 14:07:00,
2013-01-22 08:12:00,-9.8,-16.2,30.48,NNE,31,0.0,0.0,72,0.00,,,0.00,meteohub,2013-01-22 14:12:00,
2013-01-22 08:17:00,-9.6,-16.1,30.48,NNE,30,0.0,1.0,72,0.00,,,0.00,meteohub,2013-01-22 14:17:00,
2013-01-22 08:22:00,-9.6,-16.1,30.48,NNE,30,0.0,1.0,72,0.00,,,0.00,meteohub,2013-01-22 14:22:00,
2013-01-22 08:28:00,-9.4,-15.9,30.48,NNE,30,0.0,1.0,72,0.00,,,0.00,meteohub,2013-01-22 14:28:00,
2013-01-22 08:33:00,-9.0,-15.5,30.48,NNE,30,0.0,1.0,72,0.00,,,0.00,meteohub,2013-01-22 14:33:00,
2013-01-22 08:38:00,-9.0,-15.5,30.49,NNE,31,0.0,0.0,72,0.00,,,0.00,meteohub,2013-01-22 14:38:00,
2013-01-22 08:43:00,-8.9,-15.5,30.49,NNE,30,0.0,0.0,72,0.00,,,0.00,meteohub,2013-01-22 14:43:00,
2013-01-22 08:48:00,-8.9,-15.5,30.49,NNE,30,0.0,1.0,72,0.00,,,0.00,meteohub,2013-01-22 14:48:00,
2013-01-22 08:53:00,-8.7,-15.3,30.50,NNE,31,0.0,1.0,72,0.00,,,0.00,meteohub,2013-01-22 14:53:00,
2013-01-22 08:58:00,-8.3,-15.0,30.50,NNE,31,0.0,3.0,72,0.00,,,0.00,meteohub,2013-01-22 14:58:00,
2013-01-22 09:04:00,-8.1,-15.0,30.50,NNE,31,1.0,3.0,71,0.00,,,0.00,meteohub,2013-01-22 15:04:00,
2013-01-22 09:09:00,-7.8,-14.6,30.50,NNE,31,0.0,2.0,71,0.00,,,0.00,meteohub,2013-01-22 15:09:00,
2013-01-22 09:14:00,-7.2,-14.1,30.50,NNE,31,0.0,2.0,71,0.00,,,0.00,meteohub,2013-01-22 15:14:00,
2013-01-22 09:19:00,-7.1,-14.3,30.51,NNE,30,1.0,2.0,70,0.00,,,0.00,meteohub,2013-01-22 15:19:00,
2013-01-22 09:24:00,-7.2,-14.8,30.51,NNE,33,0.0,2.0,69,0.00,,,0.00,meteohub,2013-01-22 15:24:00,
2013-01-22 09:29:00,-7.2,-14.8,30.51,NNE,28,0.0,3.0,69,0.00,,,0.00,meteohub,2013-01-22 15:29:00,
2013-01-22 09:35:00,-6.5,-14.1,30.51,NNE,26,0.0,3.0,69,0.00,,,0.00,meteohub,2013-01-22 15:35:00,
2013-01-22 09:40:00,-6.5,-14.3,30.51,NNE,26,0.0,3.0,68,0.00,,,0.00,meteohub,2013-01-22 15:40:00,
2013-01-22 09:45:00,-6.2,-13.9,30.51,NNE,26,0.0,3.0,68,0.00,,,0.00,meteohub,2013-01-22 15:45:00,
2013-01-22 09:50:00,-6.2,-14.3,30.51,NNE,26,1.0,3.0,67,0.00,,,0.00,meteohub,2013-01-22 15:50:00,
2013-01-22 09:55:00,-6.0,-14.1,30.51,NNE,26,0.0,3.0,67,0.00,,,0.00,meteohub,2013-01-22 15:55:00,
2013-01-22 10:01:00,-5.6,-13.7,30.51,NNE,26,0.0,3.0,67,0.00,,,0.00,meteohub,2013-01-22 16:01:00,
2013-01-22 10:06:00,-5.3,-13.7,30.51,NNE,26,2.0,2.0,66,0.00,,,0.00,meteohub,2013-01-22 16:06:00,
2013-01-22 10:11:00,-5.1,-13.9,30.51,NNE,26,0.0,2.0,65,0.00,,,0.00,meteohub,2013-01-22 16:11:00,
2013-01-22 10:17:00,-4.5,-13.4,30.51,NNE,26,0.0,2.0,65,0.00,,,0.00,meteohub,2013-01-22 16:17:00,
2013-01-22 10:22:00,-4.5,-13.4,30.51,NE,42,0.0,5.0,65,0.00,,,0.00,meteohub,2013-01-22 16:22:00,
2013-01-22 10:27:00,-4.5,-13.4,30.52,NW,326,0.0,5.0,65,0.00,,,0.00,meteohub,2013-01-22 16:27:00,
2013-01-22 10:33:00,-3.6,-12.5,30.52,NNW,327,0.0,5.0,65,0.00,,,0.00,meteohub,2013-01-22 16:33:00,
2013-01-22 10:38:00,-3.8,-13.0,30.52,WNW,302,1.0,4.0,64,0.00,,,0.00,meteohub,2013-01-22 16:38:00,
2013-01-22 10:43:00,-3.8,-13.0,30.51,NE,36,0.0,3.0,64,0.00,,,0.00,meteohub,2013-01-22 16:43:00,
2013-01-22 10:48:00,-3.6,-12.8,30.52,NE,56,4.0,5.0,64,0.00,,,0.00,meteohub,2013-01-22 16:48:00,
2013-01-22 10:53:00,-2.6,-11.4,30.52,NE,39,0.0,5.0,65,0.00,,,0.00,meteohub,2013-01-22 16:53:00,
2013-01-22 10:58:00,-2.4,-11.6,30.52,ENE,69,0.0,5.0,64,0.00,,,0.00,meteohub,2013-01-22 16:58:00,
2013-01-22 11:03:00,-2.4,-11.9,30.51,ENE,69,0.0,5.0,63,0.00,,,0.00,meteohub,2013-01-22 17:03:00,
2013-01-22 11:09:00,-2.9,-12.5,30.50,WNW,296,0.0,5.0,63,0.00,,,0.00,meteohub,2013-01-22 17:09:00,
2013-01-22 11:14:00,-3.5,-12.8,30.50,NW,319,0.0,5.0,63,0.00,,,0.00,meteohub,2013-01-22 17:14:00,
2013-01-22 11:19:00,-2.6,-11.4,30.50,NNW,341,0.0,4.0,65,0.00,,,0.00,meteohub,2013-01-22 17:19:00,
2013-01-22 11:24:00,-2.0,-11.2,30.50,NNE,15,0.0,4.0,64,0.00,,,0.00,meteohub,2013-01-22 17:24:00,
2013-01-22 11:29:00,-2.4,-11.9,30.49,NE,34,0.0,3.0,63,0.00,,,0.00,meteohub,2013-01-22 17:29:00,
2013-01-22 11:35:00,-2.4,-11.9,30.49,NE,42,2.0,3.0,63,0.00,,,0.00,meteohub,2013-01-22 17:35:00,
2013-01-22 11:40:00,-2.7,-12.3,30.49,NE,40,0.0,5.0,63,0.00,,,0.00,meteohub,2013-01-22 17:40:00,
2013-01-22 11:45:00,-2.0,-11.2,30.49,NE,40,0.0,6.0,64,0.00,,,0.00,meteohub,2013-01-22 17:45:00,
2013-01-22 11:50:00,-1.7,-11.2,30.49,NE,40,0.0,6.0,63,0.00,,,0.00,meteohub,2013-01-22 17:50:00,
2013-01-22 11:56:00,-1.5,-11.0,30.49,NE,38,2.0,3.0,63,0.00,,,0.00,meteohub,2013-01-22 17:56:00,
2013-01-22 12:01:00,-1.7,-11.2,30.49,NNW,345,0.0,4.0,63,0.00,,,0.00,meteohub,2013-01-22 18:01:00,
2013-01-22 12:06:00,-1.5,-11.4,30.49,NE,46,3.0,4.0,62,0.00,,,0.00,meteohub,2013-01-22 18:06:00,
2013-01-22 12:11:00,-1.7,-11.6,30.49,North,0,0.0,5.0,62,0.00,,,0.00,meteohub,2013-01-22 18:11:00,
2013-01-22 12:16:00,-0.8,-10.7,30.49,NE,44,0.0,5.0,62,0.00,,,0.00,meteohub,2013-01-22 18:16:00,
2013-01-22 12:21:00,0.3,-9.2,30.49,NNW,342,0.0,5.0,63,0.00,,,0.00,meteohub,2013-01-22 18:21:00,
2013-01-22 12:27:00,0.3,-10.3,30.49,NNE,31,0.0,4.0,60,0.00,,,0.00,meteohub,2013-01-22 18:27:00,
2013-01-22 12:32:00,0.5,-9.8,30.48,WNW,298,0.0,5.0,61,0.00,,,0.00,meteohub,2013-01-22 18:32:00,
2013-01-22 12:37:00,0.1,-10.5,30.48,NE,41,0.0,5.0,60,0.00,,,0.00,meteohub,2013-01-22 18:37:00,
2013-01-22 12:42:00,0.1,-10.5,30.48,ENE,65,0.0,5.0,60,0.00,,,0.00,meteohub,2013-01-22 18:42:00,
2013-01-22 12:47:00,0.5,-10.1,30.47,NE,55,0.0,5.0,60,0.00,,,0.00,meteohub,2013-01-22 18:47:00,
2013-01-22 12:53:00,0.3,-10.7,30.47,NE,46,2.0,5.0,59,0.00,,,0.00,meteohub,2013-01-22 18:53:00,
2013-01-22 12:58:00,0.1,-10.5,30.47,WNW,291,0.0,4.0,60,0.00,,,0.00,meteohub,2013-01-22 18:58:00,
2013-01-22 13:03:00,0.3,-10.3,30.47,WNW,295,0.0,4.0,60,0.00,,,0.00,meteohub,2013-01-22 19:03:00,
2013-01-22 13:08:00,0.7,-9.9,30.46,North,0,0.0,4.0,60,0.00,,,0.00,meteohub,2013-01-22 19:08:00,
2013-01-22 13:13:00,0.9,-9.8,30.46,NE,34,0.0,4.0,60,0.00,,,0.00,meteohub,2013-01-22 19:13:00,
2013-01-22 13:18:00,0.9,-10.1,30.45,NNW,347,0.0,4.0,59,0.00,,,0.00,meteohub,2013-01-22 19:18:00,
2013-01-22 13:24:00,1.0,-9.6,30.45,NE,39,0.0,4.0,60,0.00,,,0.00,meteohub,2013-01-22 19:24:00,
2013-01-22 13:29:00,1.0,-9.2,30.45,NE,47,0.0,4.0,61,0.00,,,0.00,meteohub,2013-01-22 19:29:00,
2013-01-22 13:34:00,1.2,-9.4,30.45,NE,48,1.0,5.0,60,0.00,,,0.00,meteohub,2013-01-22 19:34:00,
2013-01-22 13:39:00,1.4,-9.2,30.45,ENE,75,0.0,5.0,60,0.00,,,0.00,meteohub,2013-01-22 19:39:00,
2013-01-22 13:44:00,1.4,-9.2,30.45,NE,51,0.0,3.0,60,0.00,,,0.00,meteohub,2013-01-22 19:44:00,
2013-01-22 13:50:00,1.4,-9.2,30.45,NE,34,0.0,6.0,60,0.00,,,0.00,meteohub,2013-01-22 19:50:00,
2013-01-22 13:55:00,1.0,-9.6,30.45,NNE,19,0.0,6.0,60,0.00,,,0.00,meteohub,2013-01-22 19:55:00,
2013-01-22 14:00:00,1.2,-9.0,30.45,NNE,20,0.0,3.0,61,0.00,,,0.00,meteohub,2013-01-22 20:00:00,
2013-01-22 14:05:00,1.4,-8.9,30.45,NNE,14,2.0,4.0,61,0.00,,,0.00,meteohub,2013-01-22 20:05:00,
2013-01-22 14:10:00,1.0,-9.2,30.45,NE,49,0.0,4.0,61,0.00,,,0.00,meteohub,2013-01-22 20:10:00,
2013-01-22 14:16:00,1.6,-8.7,30.45,ENE,63,0.0,4.0,61,0.00,,,0.00,meteohub,2013-01-22 20:16:00,
2013-01-22 14:21:00,1.4,-8.9,30.45,NE,44,0.0,4.0,61,0.00,,,0.00,meteohub,2013-01-22 20:21:00,
2013-01-22 14:27:00,1.6,-8.7,30.45,NE,40,0.0,4.0,61,0.00,,,0.00,meteohub,2013-01-22 20:27:00,
2013-01-22 14:32:00,1.8,-8.5,30.45,NNE,13,0.0,5.0,61,0.00,,,0.00,meteohub,2013-01-22 20:32:00,
2013-01-22 14:37:00,1.6,-8.7,30.45,West,277,2.0,5.0,61,0.00,,,0.00,meteohub,2013-01-22 20:37:00,
2013-01-22 14:42:00,1.6,-8.7,30.45,NW,324,0.0,6.0,61,0.00,,,0.00,meteohub,2013-01-22 20:42:00,
2013-01-22 14:47:00,1.6,-8.7,30.44,NE,41,0.0,6.0,61,0.00,,,0.00,meteohub,2013-01-22 20:47:00,
2013-01-22 14:53:00,1.8,-8.5,30.44,NE,46,4.0,6.0,61,0.00,,,0.00,meteohub,2013-01-22 20:53:00,
2013-01-22 14:58:00,1.9,-8.3,30.44,NE,37,1.0,4.0,61,0.00,,,0.00,meteohub,2013-01-22 20:58:00,
2013-01-22 15:03:00,1.8,-8.5,30.44,NNE,25,1.0,4.0,61,0.00,,,0.00,meteohub,2013-01-22 21:03:00,
2013-01-22 15:08:00,1.8,-8.5,30.44,ENE,61,6.0,6.0,61,0.00,,,0.00,meteohub,2013-01-22 21:08:00,
2013-01-22 15:14:00,1.9,-8.3,30.43,WNW,298,2.0,6.0,61,0.00,,,0.00,meteohub,2013-01-22 21:14:00,
2013-01-22 15:19:00,2.1,-8.3,30.44,NE,38,0.0,6.0,61,0.00,,,0.00,meteohub,2013-01-22 21:19:00,
2013-01-22 15:24:00,2.1,-8.3,30.44,NE,34,0.0,7.0,61,0.00,,,0.00,meteohub,2013-01-22 21:24:00,
2013-01-22 15:29:00,2.3,-8.1,30.44,NE,45,5.0,7.0,61,0.00,,,0.00,meteohub,2013-01-22 21:29:00,
2013-01-22 15:31:00,2.3,-8.1,30.44,NNE,24,1.0,7.0,61,0.00,,,0.00,meteohub,2013-01-22 21:31:00,
2013-01-22 15:36:00,2.5,-8.0,30.44,NE,45,0.0,5.0,61,0.00,,,0.00,meteohub,2013-01-22 21:36:00,
2013-01-22 15:41:00,2.7,-7.4,30.44,NE,36,2.0,5.0,62,0.00,,,0.00,meteohub,2013-01-22 21:41:00,
2013-01-22 15:47:00,2.1,-8.3,30.44,NE,49,0.0,6.0,61,0.00,,,0.00,meteohub,2013-01-22 21:47:00,
2013-01-22 15:52:00,2.1,-8.0,30.44,NE,48,0.0,6.0,62,0.00,,,0.00,meteohub,2013-01-22 21:52:00,
2013-01-22 15:57:00,2.3,-7.8,30.43,NE,37,0.0,6.0,62,0.00,,,0.00,meteohub,2013-01-22 21:57:00,
2013-01-22 16:02:00,2.3,-7.4,30.43,North,355,0.0,6.0,63,0.00,,,0.00,meteohub,2013-01-22 22:02:00,
2013-01-22 16:07:00,2.5,-7.2,30.43,NNE,25,0.0,6.0,63,0.00,,,0.00,meteohub,2013-01-22 22:07:00,
2013-01-22 16:13:00,2.5,-7.2,30.43,NNE,15,0.0,6.0,63,0.00,,,0.00,meteohub,2013-01-22 22:13:00,
2013-01-22 16:18:00,2.3,-7.4,30.43,NE,42,0.0,4.0,63,0.00,,,0.00,meteohub,2013-01-22 22:18:00,
2013-01-22 16:23:00,2.1,-7.6,30.43,NE,52,0.0,5.0,63,0.00,,,0.00,meteohub,2013-01-22 22:23:00,
2013-01-22 16:28:00,2.1,-7.6,30.43,NE,51,0.0,5.0,63,0.00,,,0.00,meteohub,2013-01-22 22:28:00,
2013-01-22 16:33:00,2.1,-7.2,30.43,NE,49,0.0,5.0,64,0.00,,,0.00,meteohub,2013-01-22 22:33:00,
2013-01-22 16:39:00,2.1,-7.2,30.43,NE,49,0.0,4.0,64,0.00,,,0.00,meteohub,2013-01-22 22:39:00,
2013-01-22 16:44:00,2.1,-7.2,30.43,NE,47,0.0,3.0,64,0.00,,,0.00,meteohub,2013-01-22 22:44:00,
2013-01-22 16:49:00,2.1,-7.2,30.43,NE,42,0.0,3.0,64,0.00,,,0.00,meteohub,2013-01-22 22:49:00,
2013-01-22 16:54:00,2.1,-7.2,30.43,NE,41,0.0,3.0,64,0.00,,,0.00,meteohub,2013-01-22 22:54:00,
2013-01-22 16:59:00,2.1,-7.2,30.43,NE,37,1.0,3.0,64,0.00,,,0.00,meteohub,2013-01-22 22:59:00,
2013-01-22 17:04:00,2.1,-7.2,30.43,NE,37,0.0,3.0,64,0.00,,,0.00,meteohub,2013-01-22 23:04:00,
2013-01-22 17:10:00,2.3,-7.1,30.43,NE,37,0.0,2.0,64,0.00,,,0.00,meteohub,2013-01-22 23:10:00,
2013-01-22 17:15:00,2.5,-6.5,30.43,NE,37,1.0,2.0,65,0.00,,,0.00,meteohub,2013-01-22 23:15:00,
2013-01-22 17:20:00,2.5,-6.5,30.43,NE,48,0.0,1.0,65,0.00,,,0.00,meteohub,2013-01-22 23:20:00,
2013-01-22 17:25:00,2.3,-6.7,30.43,NE,47,0.0,4.0,65,0.00,,,0.00,meteohub,2013-01-22 23:25:00,
2013-01-22 17:30:00,2.1,-6.9,30.43,NE,47,0.0,4.0,65,0.00,,,0.00,meteohub,2013-01-22 23:30:00,
2013-01-22 17:35:00,2.1,-6.9,30.43,NE,47,0.0,2.0,65,0.00,,,0.00,meteohub,2013-01-22 23:35:00,
2013-01-22 17:41:00,2.3,-6.7,30.43,NE,46,0.0,1.0,65,0.00,,,0.00,meteohub,2013-01-22 23:41:00,
2013-01-22 17:46:00,2.3,-6.5,30.43,NE,46,0.0,0.0,66,0.00,,,0.00,meteohub,2013-01-22 23:46:00,
2013-01-22 17:51:00,2.3,-6.5,30.43,NE,47,0.0,0.0,66,0.00,,,0.00,meteohub,2013-01-22 23:51:00,
2013-01-22 17:56:00,2.5,-6.3,30.42,NE,47,0.0,1.0,66,0.00,,,0.00,meteohub,2013-01-22 23:56:00,
2013-01-22 18:01:00,2.5,-6.3,30.42,NE,47,0.0,1.0,66,0.00,,,0.00,meteohub,2013-01-23 00:01:00,
2013-01-22 18:07:00,2.5,-6.3,30.42,NE,47,0.0,1.0,66,0.00,,,0.00,meteohub,2013-01-23 00:07:00,
2013-01-22 18:12:00,2.5,-6.3,30.42,NE,47,0.0,1.0,66,0.00,,,0.00,meteohub,2013-01-23 00:12:00,
2013-01-22 18:17:00,2.7,-6.2,30.42,NE,47,0.0,1.0,66,0.00,,,0.00,meteohub,2013-01-23 00:17:00,
2013-01-22 18:22:00,2.7,-5.8,30.41,NE,47,0.0,1.0,67,0.00,,,0.00,meteohub,2013-01-23 00:22:00,
2013-01-22 18:27:00,2.7,-6.2,30.41,NE,46,0.0,1.0,66,0.00,,,0.00,meteohub,2013-01-23 00:27:00,
2013-01-22 18:32:00,2.7,-5.8,30.41,NE,44,0.0,1.0,67,0.00,,,0.00,meteohub,2013-01-23 00:32:00,
2013-01-22 18:38:00,2.7,-6.2,30.41,NE,44,0.0,2.0,66,0.00,,,0.00,meteohub,2013-01-23 00:38:00,
2013-01-22 18:43:00,2.7,-5.8,30.40,NE,44,0.0,2.0,67,0.00,,,0.00,meteohub,2013-01-23 00:43:00,
2013-01-22 18:48:00,2.7,-6.2,30.40,NE,44,0.0,2.0,66,0.00,,,0.00,meteohub,2013-01-23 00:48:00,
2013-01-22 18:53:00,2.8,-5.6,30.41,NE,44,0.0,2.0,67,0.00,,,0.00,meteohub,2013-01-23 00:53:00,
2013-01-22 18:58:00,2.8,-5.6,30.40,NE,44,0.0,2.0,67,0.00,,,0.00,meteohub,2013-01-23 00:58:00,
2013-01-22 19:03:00,2.8,-5.6,30.40,NE,44,0.0,2.0,67,0.00,,,0.00,meteohub,2013-01-23 01:03:00,
2013-01-22 19:09:00,2.8,-5.6,30.40,NE,42,0.0,2.0,67,0.00,,,0.00,meteohub,2013-01-23 01:09:00,
2013-01-22 19:14:00,2.8,-5.6,30.40,NE,42,0.0,2.0,67,0.00,,,0.00,meteohub,2013-01-23 01:14:00,
2013-01-22 19:19:00,2.8,-5.6,30.40,NE,42,0.0,2.0,67,0.00,,,0.00,meteohub,2013-01-23 01:19:00,
2013-01-22 19:24:00,2.8,-5.6,30.39,NE,42,0.0,2.0,67,0.00,,,0.00,meteohub,2013-01-23 01:24:00,
2013-01-22 19:29:00,2.8,-5.6,30.40,NE,39,0.0,2.0,67,0.00,,,0.00,meteohub,2013-01-23 01:29:00,
2013-01-22 19:34:00,3.0,-5.4,30.40,NE,39,0.0,3.0,67,0.00,,,0.00,meteohub,2013-01-23 01:34:00,
2013-01-22 19:40:00,3.0,-5.4,30.40,NE,38,0.0,3.0,67,0.00,,,0.00,meteohub,2013-01-23 01:40:00,
2013-01-22 19:45:00,3.0,-5.1,30.40,NE,38,0.0,3.0,68,0.00,,,0.00,meteohub,2013-01-23 01:45:00,
2013-01-22 19:50:00,3.2,-4.9,30.40,NE,38,0.0,2.0,68,0.00,,,0.00,meteohub,2013-01-23 01:50:00,
2013-01-22 19:55:00,3.2,-4.9,30.39,NE,37,0.0,2.0,68,0.00,,,0.00,meteohub,2013-01-23 01:55:00,
2013-01-22 20:01:00,3.2,-4.9,30.39,NE,37,0.0,2.0,68,0.00,,,0.00,meteohub,2013-01-23 02:01:00,
2013-01-22 20:06:00,3.4,-4.7,30.38,NE,37,0.0,2.0,68,0.00,,,0.00,meteohub,2013-01-23 02:06:00,
2013-01-22 20:12:00,3.4,-4.7,30.38,NE,36,0.0,2.0,68,0.00,,,0.00,meteohub,2013-01-23 02:12:00,
2013-01-22 20:17:00,3.6,-4.5,30.38,NE,36,0.0,0.0,68,0.00,,,0.00,meteohub,2013-01-23 02:17:00,
2013-01-22 20:22:00,3.6,-4.5,30.38,NE,36,0.0,0.0,68,0.00,,,0.00,meteohub,2013-01-23 02:22:00,
2013-01-22 20:27:00,3.6,-4.5,30.38,NE,36,0.0,2.0,68,0.00,,,0.00,meteohub,2013-01-23 02:27:00,
2013-01-22 20:32:00,3.7,-4.2,30.38,NNW,344,1.0,2.0,69,0.00,,,0.00,meteohub,2013-01-23 02:32:00,
2013-01-22 20:37:00,3.7,-4.2,30.38,NNW,344,0.0,3.0,69,0.00,,,0.00,meteohub,2013-01-23 02:37:00,
2013-01-22 20:42:00,3.9,-4.0,30.38,NNW,344,1.0,3.0,69,0.00,,,0.00,meteohub,2013-01-23 02:42:00,
2013-01-22 20:48:00,3.9,-4.0,30.38,NNW,344,0.0,3.0,69,0.00,,,0.00,meteohub,2013-01-23 02:48:00,
2013-01-22 20:53:00,4.3,-3.6,30.38,NNW,344,0.0,2.0,69,0.00,,,0.00,meteohub,2013-01-23 02:53:00,
2013-01-22 20:58:00,4.3,-3.6,30.38,NNW,343,1.0,2.0,69,0.00,,,0.00,meteohub,2013-01-23 02:58:00,
2013-01-22 21:04:00,4.3,-3.6,30.38,NNW,340,0.0,3.0,69,0.00,,,0.00,meteohub,2013-01-23 03:04:00,
2013-01-22 21:09:00,4.5,-3.5,30.37,NNW,340,0.0,3.0,69,0.00,,,0.00,meteohub,2013-01-23 03:09:00,
2013-01-22 21:14:00,4.5,-3.5,30.37,NNW,340,0.0,3.0,69,0.00,,,0.00,meteohub,2013-01-23 03:14:00,
2013-01-22 21:20:00,4.6,-3.3,30.37,NNW,340,0.0,1.0,69,0.00,,,0.00,meteohub,2013-01-23 03:20:00,
2013-01-22 21:25:00,4.6,-3.3,30.37,NNW,340,0.0,0.0,69,0.00,,,0.00,meteohub,2013-01-23 03:25:00,
2013-01-22 21:30:00,4.6,-3.3,30.38,NNW,340,0.0,0.0,69,0.00,,,0.00,meteohub,2013-01-23 03:30:00,
2013-01-22 21:35:00,4.8,-3.1,30.37,NNW,340,0.0,0.0,69,0.00,,,0.00,meteohub,2013-01-23 03:35:00,
2013-01-22 21:40:00,4.8,-3.1,30.37,NNW,340,0.0,0.0,69,0.00,,,0.00,meteohub,2013-01-23 03:40:00,
2013-01-22 21:45:00,5.0,-2.9,30.37,NNW,340,0.0,0.0,69,0.00,,,0.00,meteohub,2013-01-23 03:45:00,
2013-01-22 21:51:00,5.0,-2.9,30.37,NNW,340,0.0,0.0,69,0.00,,,0.00,meteohub,2013-01-23 03:51:00,
2013-01-22 21:56:00,5.2,-2.7,30.37,NNW,340,0.0,0.0,69,0.00,,,0.00,meteohub,2013-01-23 03:56:00,
2013-01-22 22:02:00,5.2,-2.7,30.36,NNW,340,0.0,0.0,69,0.00,,,0.00,meteohub,2013-01-23 04:02:00,
2013-01-22 22:07:00,5.2,-2.7,30.36,NNW,340,0.0,0.0,69,0.00,,,0.00,meteohub,2013-01-23 04:07:00,
2013-01-22 22:12:00,5.2,-2.7,30.36,NNW,340,0.0,0.0,69,0.00,,,0.00,meteohub,2013-01-23 04:12:00,
2013-01-22 22:17:00,5.4,-2.6,30.36,NNW,340,0.0,0.0,69,0.00,,,0.00,meteohub,2013-01-23 04:17:00,
2013-01-22 22:22:00,5.4,-2.6,30.35,NNW,340,0.0,0.0,69,0.00,,,0.00,meteohub,2013-01-23 04:22:00,
2013-01-22 22:27:00,5.4,-2.6,30.35,NNW,340,0.0,0.0,69,0.00,,,0.00,meteohub,2013-01-23 04:27:00,
2013-01-22 22:32:00,5.4,-2.6,30.35,NNW,340,0.0,0.0,69,0.00,,,0.00,meteohub,2013-01-23 04:32:00,
2013-01-22 22:37:00,5.5,-2.2,30.35,NNW,340,0.0,0.0,70,0.00,,,0.00,meteohub,2013-01-23 04:37:00,
2013-01-22 22:43:00,5.5,-2.2,30.35,NNW,340,0.0,0.0,70,0.00,,,0.00,meteohub,2013-01-23 04:43:00,
2013-01-22 22:48:00,5.5,-2.2,30.35,NNW,340,0.0,0.0,70,0.00,,,0.00,meteohub,2013-01-23 04:48:00,
2013-01-22 22:53:00,5.5,-2.2,30.35,NNW,340,0.0,0.0,70,0.00,,,0.00,meteohub,2013-01-23 04:53:00,
2013-01-22 22:58:00,5.5,-2.2,30.35,NNW,340,0.0,0.0,70,0.00,,,0.00,meteohub,2013-01-23 04:58:00,
2013-01-22 23:02:00,5.7,-2.0,30.35,NNW,340,0.0,0.0,70,0.00,,,0.00,meteohub,2013-01-23 05:02:00,
2013-01-22 23:03:00,5.7,-2.0,30.35,NNW,340,0.0,0.0,70,0.00,,,0.00,meteohub,2013-01-23 05:03:00,
2013-01-22 23:04:00,5.7,-2.0,30.35,NNW,340,0.0,0.0,70,0.00,,,0.00,meteohub,2013-01-23 05:04:00,
2013-01-22 23:05:00,5.5,-2.2,30.35,NNW,340,0.0,0.0,70,0.00,,,0.00,meteohub,2013-01-23 05:05:00,
2013-01-22 23:10:00,5.7,-2.0,30.34,NNW,340,0.0,0.0,70,0.00,,,0.00,meteohub,2013-01-23 05:10:00,
2013-01-22 23:15:00,5.7,-2.0,30.35,NNW,340,0.0,0.0,70,0.00,,,0.00,meteohub,2013-01-23 05:15:00,
2013-01-22 23:21:00,5.7,-2.0,30.35,NNW,340,0.0,0.0,70,0.00,,,0.00,meteohub,2013-01-23 05:21:00,
2013-01-22 23:26:00,6.1,-1.7,30.35,NNW,340,0.0,0.0,70,0.00,,,0.00,meteohub,2013-01-23 05:26:00,
2013-01-22 23:31:00,6.1,-1.7,30.35,NNW,340,0.0,0.0,70,0.00,,,0.00,meteohub,2013-01-23 05:31:00,
2013-01-22 23:36:00,6.1,-1.7,30.35,NNW,340,0.0,0.0,70,0.00,,,0.00,meteohub,2013-01-23 05:36:00,
2013-01-22 23:42:00,6.3,-1.5,30.34,NNW,340,0.0,0.0,70,0.00,,,0.00,meteohub,2013-01-23 05:42:00,
2013-01-22 23:47:00,6.3,-1.5,30.34,NNW,340,0.0,0.0,70,0.00,,,0.00,meteohub,2013-01-23 05:47:00,
2013-01-22 23:52:00,6.3,-1.5,30.34,NNW,340,0.0,0.0,70,0.00,,,0.00,meteohub,2013-01-23 05:52:00,
2013-01-22 23:57:00,6.3,-1.5,30.34,NNW,340,0.0,0.0,70,0.00,,,0.00,meteohub,2013-01-23 05:57:00,